createdAt,value
2018-09-14T00:01:53.252Z,17.10
2018-09-14T00:04:22.032Z,27.53
2018-09-14T00:06:51.232Z,18.50
2018-09-14T00:09:19.536Z,27.13
2018-09-14T00:11:47.874Z,14.27
2018-09-14T00:14:16.262Z,30.53
2018-09-14T00:16:44.518Z,24.70
2018-09-14T00:19:12.904Z,36.90
2018-09-14T00:21:41.192Z,21.67
2018-09-14T00:24:09.504Z,37.77
2018-09-14T00:26:37.828Z,19.57
2018-09-14T00:29:06.132Z,18.57
2018-09-14T00:31:34.444Z,26.97
2018-09-14T00:34:02.764Z,35.40
2018-09-14T00:36:31.120Z,19.50
2018-09-14T00:38:59.430Z,14.60
2018-09-14T00:41:27.768Z,18.97
2018-09-14T00:43:56.106Z,43.47
2018-09-14T00:46:24.476Z,23.80
2018-09-14T00:48:52.786Z,15.77
2018-09-14T00:51:21.119Z,20.13
2018-09-14T00:53:49.471Z,31.57
2018-09-14T00:56:17.834Z,22.73
2018-09-14T01:01:16.041Z,12.27
2018-09-14T01:03:44.412Z,21.87
2018-09-14T01:06:12.748Z,18.63
2018-09-14T01:08:41.375Z,17.30
2018-09-14T01:11:09.764Z,16.12
2018-09-14T01:13:38.122Z,14.73
2018-09-14T01:16:06.825Z,25.97
2018-09-14T01:18:35.228Z,28.67
2018-09-14T01:21:03.502Z,9.93
2018-09-14T01:23:31.858Z,12.97
2018-09-14T10:19:43.839Z,6.17
2018-09-14T10:22:12.135Z,6.28
2018-09-14T10:24:40.481Z,7.05
2018-09-14T10:27:08.783Z,7.10
2018-09-14T10:29:37.091Z,7.67
2018-09-14T10:32:05.392Z,8.63
2018-09-14T10:34:33.772Z,8.13
2018-09-14T10:37:02.154Z,5.95
2018-09-14T10:39:30.368Z,6.00
2018-09-14T10:41:58.680Z,7.20
2018-09-14T10:44:26.998Z,6.22
2018-09-14T10:46:55.325Z,3.87
2018-09-14T10:49:23.649Z,5.10
2018-09-14T10:51:52.003Z,6.00
2018-09-14T10:54:20.277Z,5.72
2018-09-14T10:56:48.944Z,3.85
2018-09-14T10:59:17.235Z,6.75
2018-09-14T11:01:45.552Z,5.70
2018-09-14T11:04:13.831Z,5.47
2018-09-14T11:06:42.408Z,4.00
2018-09-14T11:09:12.616Z,4.70
2018-09-14T11:11:40.923Z,5.97
2018-09-14T11:14:09.355Z,5.10
2018-09-14T11:16:37.640Z,6.97
2018-09-14T11:19:05.940Z,6.40
2018-09-14T11:21:34.667Z,6.97
2018-09-14T11:24:03.064Z,10.53
2018-09-14T11:26:31.397Z,5.12
2018-09-14T11:28:59.684Z,9.23
2018-09-14T11:31:28.764Z,10.05
2018-09-14T11:33:57.772Z,10.70
2018-09-14T11:36:26.499Z,4.90
2018-09-14T11:38:54.892Z,6.47
2018-09-14T11:41:23.227Z,5.15
2018-09-14T11:43:51.847Z,5.00
2018-09-14T11:46:20.800Z,6.87
2018-09-14T11:48:49.722Z,9.95
2018-09-14T11:51:18.079Z,8.15
2018-09-14T11:53:46.395Z,5.97
2018-09-14T11:56:14.668Z,6.30
2018-09-14T11:58:43.045Z,5.78
2018-09-14T12:01:11.389Z,6.40
2018-09-14T12:03:39.672Z,4.47
2018-09-14T12:06:07.985Z,4.37
2018-09-14T12:08:36.319Z,4.92
2018-09-14T12:11:04.703Z,4.67
2018-09-14T12:13:33.055Z,9.88
2018-09-14T12:16:01.372Z,5.47
2018-09-14T12:18:29.659Z,3.22
2018-09-14T12:20:57.950Z,4.72
2018-09-14T12:23:26.320Z,4.05
2018-09-14T12:25:54.642Z,4.30
2018-09-14T12:28:22.997Z,10.70
2018-09-14T12:30:51.242Z,4.83
2018-09-14T12:33:19.542Z,8.15
2018-09-14T12:35:47.887Z,9.35
2018-09-14T12:38:16.120Z,4.08
2018-09-14T12:40:44.532Z,7.87
2018-09-14T12:43:12.865Z,3.30
2018-09-14T12:45:41.131Z,6.40
2018-09-14T12:48:09.420Z,3.80
2018-09-14T12:50:37.767Z,3.30
2018-09-14T12:53:06.065Z,6.22
2018-09-14T12:55:34.381Z,6.08
2018-09-14T12:58:02.773Z,8.33
2018-09-14T13:00:31.116Z,5.85
2018-09-14T13:02:59.428Z,4.15
2018-09-14T13:05:27.724Z,4.60
2018-09-14T13:07:56.020Z,5.90
2018-09-14T13:10:24.321Z,5.40
2018-09-14T13:12:52.571Z,6.30
2018-09-14T13:15:20.838Z,7.55
2018-09-14T13:17:49.164Z,7.58
2018-09-14T13:20:17.519Z,5.17
2018-09-14T13:22:45.811Z,5.17
2018-09-14T13:25:14.163Z,7.58
2018-09-14T13:27:42.499Z,3.85
2018-09-14T13:30:10.794Z,7.08
2018-09-14T13:32:40.271Z,9.08
2018-09-14T13:35:08.568Z,5.67
2018-09-14T13:37:36.873Z,6.55
2018-09-14T13:40:05.304Z,3.87
2018-09-14T13:42:33.598Z,4.05
2018-09-14T13:45:02.249Z,3.85
2018-09-14T13:47:30.662Z,5.20
2018-09-14T13:50:00.476Z,6.95
2018-09-14T13:52:29.009Z,2.83
2018-09-14T13:54:57.277Z,5.42
2018-09-14T13:57:25.576Z,7.37
2018-09-14T13:59:54.114Z,7.58
2018-09-14T14:02:22.624Z,5.37
2018-09-14T14:04:51.157Z,4.12
2018-09-14T14:07:21.438Z,3.90
2018-09-14T14:09:49.946Z,5.37
2018-09-14T14:12:18.821Z,6.00
2018-09-14T14:14:47.491Z,4.22
2018-09-14T14:17:16.040Z,5.37
2018-09-14T14:19:45.165Z,7.62
2018-09-14T14:22:13.472Z,8.05
2018-09-14T14:24:42.521Z,5.17
2018-09-14T14:27:11.301Z,5.42
2018-09-14T14:38:21.581Z,3.60
2018-09-14T14:40:49.925Z,4.12
2018-09-14T14:43:19.429Z,3.22
2018-09-14T14:45:48.021Z,9.05
2018-09-14T14:48:17.076Z,6.37
2018-09-14T14:50:45.340Z,14.90
2018-09-14T14:53:13.655Z,9.33
2018-09-14T14:55:43.276Z,4.20
2018-09-14T14:58:11.759Z,4.28
2018-09-14T15:00:40.371Z,4.25
2018-09-14T15:03:10.199Z,7.65
2018-09-14T15:05:39.376Z,5.35
2018-09-14T15:08:07.858Z,4.58
2018-09-14T15:10:36.350Z,5.33
2018-09-14T15:13:04.763Z,5.33
2018-09-14T15:15:33.097Z,5.95
2018-09-14T15:18:01.379Z,4.42
2018-09-14T15:20:29.674Z,7.10
2018-09-14T15:22:57.972Z,3.22
2018-09-14T15:25:26.423Z,3.52
2018-09-14T15:27:55.409Z,4.47
2018-09-14T15:30:24.197Z,4.87
2018-09-14T15:32:52.719Z,6.53
2018-09-14T15:35:21.790Z,2.87
2018-09-14T15:37:51.809Z,4.12
2018-09-14T15:40:23.121Z,3.77
2018-09-14T15:42:52.082Z,6.28
2018-09-14T15:45:20.384Z,3.62
2018-09-14T15:47:48.688Z,4.53
2018-09-14T15:50:17.011Z,4.55
2018-09-14T15:52:45.478Z,4.62
2018-09-14T15:55:13.786Z,3.33
2018-09-14T15:57:42.097Z,5.45
2018-09-14T16:00:10.483Z,3.75
2018-09-14T16:02:38.806Z,4.95
2018-09-14T16:05:07.109Z,5.58
2018-09-14T16:07:36.640Z,4.05
2018-09-14T16:10:04.995Z,2.75
2018-09-14T16:12:33.365Z,3.27
2018-09-14T16:15:01.680Z,4.08
2018-09-14T16:17:30.023Z,4.72
2018-09-14T16:19:58.340Z,4.75
2018-09-14T16:22:26.629Z,5.37
2018-09-14T16:24:54.940Z,4.30
2018-09-14T16:27:23.300Z,4.00
2018-09-14T16:29:51.655Z,7.25
2018-09-14T16:32:19.998Z,5.58
2018-09-14T16:34:48.328Z,3.95
2018-09-14T16:37:16.671Z,3.90
2018-09-14T16:39:44.964Z,4.75
2018-09-14T16:42:13.322Z,3.62
2018-09-14T16:44:42.013Z,5.97
2018-09-14T16:47:10.831Z,4.47
2018-09-14T16:49:39.405Z,5.78
2018-09-14T16:52:07.677Z,4.65
2018-09-14T16:54:36.261Z,5.03
2018-09-14T16:57:04.652Z,5.20
2018-09-14T16:59:33.009Z,4.42
2018-09-14T17:02:01.330Z,3.92
2018-09-14T17:04:29.908Z,4.50
2018-09-14T17:06:58.226Z,4.45
2018-09-14T17:09:26.619Z,5.47
2018-09-14T17:11:54.941Z,4.22
2018-09-14T17:14:23.280Z,3.00
2018-09-14T17:16:51.674Z,4.03
2018-09-14T17:19:19.990Z,3.30
2018-09-14T17:21:48.256Z,3.33
2018-09-14T17:24:16.539Z,5.17
2018-09-14T17:26:44.820Z,4.47
2018-09-14T17:29:13.165Z,4.80
2018-09-14T17:50:01.979Z,4.17
2018-09-14T17:52:30.283Z,5.20
2018-09-14T17:54:58.644Z,7.20
2018-09-14T17:57:26.995Z,6.20
2018-09-14T17:59:55.346Z,4.92
2018-09-14T18:02:23.649Z,6.62
2018-09-14T18:04:51.966Z,5.28
2018-09-14T18:07:20.276Z,5.28
2018-09-14T18:09:48.685Z,9.48
2018-09-14T18:12:17.113Z,9.38
2018-09-14T18:14:45.407Z,5.47
2018-09-14T18:17:13.795Z,6.30
2018-09-14T18:19:42.108Z,5.28
2018-09-14T18:22:10.785Z,5.03
2018-09-14T18:24:39.097Z,6.05
2018-09-14T18:27:07.419Z,5.25
2018-09-14T18:29:35.781Z,5.25
2018-09-14T18:32:04.099Z,6.30
2018-09-14T18:34:32.370Z,6.35
2018-09-14T18:37:00.856Z,6.92
2018-09-14T18:39:29.304Z,10.98
2018-09-14T18:41:57.686Z,7.90
2018-09-14T18:44:26.145Z,11.50
2018-09-14T18:46:54.632Z,8.85
2018-09-14T18:49:23.057Z,8.88
2018-09-14T18:51:51.441Z,7.62
2018-09-14T18:54:19.889Z,7.97
2018-09-14T18:56:48.557Z,7.70
2018-09-14T18:59:16.969Z,5.90
2018-09-14T19:01:45.452Z,5.95
2018-09-14T19:04:14.087Z,7.35
2018-09-14T19:06:42.438Z,10.15
2018-09-14T22:15:22.636Z,14.70
2018-09-14T22:17:50.951Z,18.07
2018-09-14T22:20:19.242Z,11.00
2018-09-14T22:22:51.837Z,10.10
2018-09-14T22:25:20.177Z,10.70
2018-09-14T22:27:48.655Z,11.03
2018-09-14T22:30:16.993Z,10.78
2018-09-14T22:32:45.381Z,8.48
2018-09-14T22:35:13.715Z,13.58
2018-09-14T22:37:42.108Z,9.43
2018-09-14T22:40:10.488Z,17.27
2018-09-14T22:42:38.866Z,10.75
2018-09-14T22:45:07.194Z,12.78
2018-09-14T22:47:35.467Z,7.78
2018-09-14T22:50:04.158Z,11.70
2018-09-14T22:52:32.676Z,8.13
2018-09-14T22:57:53.691Z,11.83
2018-09-14T23:01:31.054Z,14.58
2018-09-14T23:03:59.349Z,19.32
2018-09-14T23:06:27.643Z,16.40
2018-09-14T23:08:55.959Z,23.83
2018-09-14T23:48:01.956Z,17.55
2018-09-14T23:50:31.068Z,15.85
2018-09-14T23:52:59.823Z,16.62
2018-09-14T23:55:28.375Z,15.05
2018-09-14T23:57:56.993Z,15.13
